createdAt,value
2022-07-29T00:01:44.408Z,101537.22
2022-07-29T00:04:14.005Z,101532.28
2022-07-29T00:06:42.558Z,101544.28
2022-07-29T00:09:10.844Z,101535.84
2022-07-29T00:11:39.226Z,101534.66
2022-07-29T00:14:07.439Z,101535.47
2022-07-29T00:16:35.781Z,101536.63
2022-07-29T00:19:05.029Z,101526.41
2022-07-29T00:21:33.272Z,101533.69
2022-07-29T00:24:01.443Z,101526.47
2022-07-29T00:26:32.705Z,101522.31
2022-07-29T00:29:32.504Z,101521.94
2022-07-29T00:31:51.792Z,101530.78
2022-07-29T00:34:38.442Z,101526.56
2022-07-29T00:37:06.618Z,101528.63
2022-07-29T00:39:36.239Z,101529.16
2022-07-29T00:42:05.830Z,101536.72
2022-07-29T00:44:40.140Z,101524.97
2022-07-29T00:47:10.854Z,101527.56
2022-07-29T00:49:42.024Z,101523.22
2022-07-29T00:52:12.218Z,101527.75
2022-07-29T00:54:44.747Z,101525.25
2022-07-29T00:57:14.289Z,101514.38
2022-07-29T00:59:42.511Z,101509.31
2022-07-29T01:02:11.073Z,101501.03
2022-07-29T01:04:40.318Z,101514.81
2022-07-29T01:07:09.735Z,101509.63
2022-07-29T01:09:45.524Z,101497.06
2022-07-29T01:12:24.104Z,101497.22
2022-07-29T01:14:56.242Z,101503.22
2022-07-29T01:17:52.755Z,101491.91
2022-07-29T01:20:32.411Z,101496.22
2022-07-29T01:23:26.115Z,101494.69
2022-07-29T01:26:36.308Z,101484.75
2022-07-29T01:29:53.963Z,101476.56
2022-07-29T01:32:29.580Z,101475.19
2022-07-29T01:35:46.697Z,101469.53
2022-07-29T01:38:23.211Z,101458.38
2022-07-29T01:41:04.124Z,101449.91
2022-07-29T01:43:57.051Z,101450.44
2022-07-29T01:46:38.051Z,101444.06
2022-07-29T01:49:22.545Z,101435.47
2022-07-29T01:52:19.296Z,101427.91
2022-07-29T01:54:58.264Z,101431.63
2022-07-29T01:57:32.268Z,101427.44
2022-07-29T02:00:02.878Z,101417.72
2022-07-29T02:02:45.266Z,101425.06
2022-07-29T02:05:18.806Z,101422.41
2022-07-29T02:07:50.185Z,101417.25
2022-07-29T02:10:26.020Z,101418.78
2022-07-29T02:12:58.139Z,101417.78
2022-07-29T02:15:31.699Z,101418.47
2022-07-29T02:18:08.302Z,101420.31
2022-07-29T02:20:39.137Z,101419.78
2022-07-29T02:23:12.785Z,101422.19
2022-07-29T02:25:43.887Z,101426.28
2022-07-29T02:28:16.430Z,101424.16
2022-07-29T02:30:46.742Z,101432.03
2022-07-29T02:33:18.251Z,101432.28
2022-07-29T02:35:49.516Z,101429.97
2022-07-29T02:38:37.809Z,101436.44
2022-07-29T02:41:14.376Z,101437.72
2022-07-29T02:43:47.982Z,101434.94
2022-07-29T02:46:28.859Z,101436.94
2022-07-29T02:49:22.354Z,101437.53
2022-07-29T02:52:04.841Z,101434.03
2022-07-29T02:54:42.128Z,101422.47
2022-07-29T02:57:35.309Z,101431.38
2022-07-29T03:00:31.168Z,101433.03
2022-07-29T03:03:04.786Z,101434.66
2022-07-29T03:05:33.849Z,101434.75
2022-07-29T03:08:09.465Z,101435.31
2022-07-29T03:10:41.376Z,101432.44
2022-07-29T03:13:11.307Z,101437.63
2022-07-29T03:15:40.297Z,101433.47
2022-07-29T03:18:09.243Z,101432.63
2022-07-29T03:20:39.746Z,101432.72
2022-07-29T03:23:09.339Z,101425.06
2022-07-29T03:25:37.802Z,101420.88
2022-07-29T03:28:05.984Z,101415.72
2022-07-29T03:30:34.293Z,101409.81
2022-07-29T03:33:02.433Z,101418.13
2022-07-29T03:35:32.602Z,101410.44
2022-07-29T03:38:00.792Z,101423.88
2022-07-29T03:40:39.499Z,101425.03
2022-07-29T03:43:11.041Z,101423.34
2022-07-29T03:45:48.449Z,101416.59
2022-07-29T03:48:22.085Z,101419.56
2022-07-29T03:50:51.935Z,101407.81
2022-07-29T03:53:20.322Z,101411.81
2022-07-29T03:55:56.293Z,101409.59
2022-07-29T03:58:28.124Z,101409.16
2022-07-29T04:00:58.470Z,101406.75
2022-07-29T04:03:26.819Z,101409.91
2022-07-29T04:06:07.544Z,101412.81
2022-07-29T04:08:36.014Z,101405.56
2022-07-29T04:11:05.697Z,101409.25
2022-07-29T04:13:35.319Z,101413.13
2022-07-29T04:16:03.683Z,101419.34
2022-07-29T04:18:31.999Z,101417.91
2022-07-29T04:21:01.845Z,101415.06
2022-07-29T04:23:34.422Z,101418.53
2022-07-29T04:26:02.697Z,101422.69
2022-07-29T04:28:30.951Z,101424.09
2022-07-29T04:30:59.190Z,101420.84
2022-07-29T04:33:27.421Z,101416.88
2022-07-29T04:35:55.700Z,101414.13
2022-07-29T04:38:23.892Z,101415.78
2022-07-29T04:40:52.150Z,101422.81
2022-07-29T04:43:22.778Z,101416.72
2022-07-29T04:45:51.898Z,101422.66
2022-07-29T04:48:22.927Z,101431.88
2022-07-29T04:50:54.854Z,101431.06
2022-07-29T04:53:23.171Z,101427.91
2022-07-29T04:55:51.442Z,101431.91
2022-07-29T04:58:19.795Z,101427.41
2022-07-29T05:00:47.989Z,101432.66
2022-07-29T05:03:16.217Z,101428.28
2022-07-29T05:05:44.511Z,101428.09
2022-07-29T05:08:12.817Z,101429.78
2022-07-29T05:10:41.201Z,101429.63
2022-07-29T05:13:09.472Z,101424.31
2022-07-29T05:15:38.215Z,101430.50
2022-07-29T05:18:06.824Z,101432.28
2022-07-29T05:20:35.686Z,101425.34
2022-07-29T05:23:04.291Z,101425.00
2022-07-29T05:25:44.192Z,101429.66
2022-07-29T05:28:13.393Z,101426.16
2022-07-29T05:30:41.697Z,101422.50
2022-07-29T05:33:36.106Z,101418.75
2022-07-29T05:36:00.563Z,101420.47
2022-07-29T05:38:30.149Z,101419.38
2022-07-29T05:40:59.897Z,101420.81
2022-07-29T05:43:31.534Z,101413.53
2022-07-29T05:45:59.835Z,101414.53
2022-07-29T05:48:28.929Z,101409.19
2022-07-29T05:51:00.249Z,101413.88
2022-07-29T05:53:28.509Z,101418.28
2022-07-29T05:55:56.681Z,101419.13
2022-07-29T05:58:24.899Z,101416.97
2022-07-29T06:00:53.891Z,101412.00
2022-07-29T06:03:22.099Z,101415.66
2022-07-29T06:05:50.274Z,101418.19
2022-07-29T06:08:18.708Z,101417.88
2022-07-29T06:10:46.994Z,101420.88
2022-07-29T06:13:16.988Z,101428.41
2022-07-29T06:15:45.556Z,101414.94
2022-07-29T06:18:14.414Z,101417.59
2022-07-29T06:20:42.790Z,101418.38
2022-07-29T06:23:11.077Z,101415.41
2022-07-29T06:25:41.700Z,101421.22
2022-07-29T06:28:10.008Z,101423.59
2022-07-29T06:30:39.136Z,101413.03
2022-07-29T06:33:07.419Z,101407.84
2022-07-29T06:35:41.190Z,101405.53
2022-07-29T06:38:31.461Z,101396.69
2022-07-29T06:41:03.782Z,101404.63
2022-07-29T06:43:52.477Z,101408.44
2022-07-29T06:46:24.137Z,101418.47
2022-07-29T06:48:53.423Z,101418.22
2022-07-29T06:51:23.940Z,101410.59
2022-07-29T06:53:58.113Z,101414.75
2022-07-29T06:56:28.333Z,101418.75
2022-07-29T06:58:56.559Z,101413.22
2022-07-29T07:01:24.902Z,101424.41
2022-07-29T07:03:53.236Z,101422.19
2022-07-29T07:06:21.498Z,101421.88
2022-07-29T07:08:49.722Z,101426.91
2022-07-29T07:11:17.897Z,101422.34
2022-07-29T07:13:46.240Z,101430.50
2022-07-29T07:16:14.592Z,101426.28
2022-07-29T07:18:42.856Z,101429.28
2022-07-29T07:21:11.090Z,101434.09
2022-07-29T07:23:39.291Z,101426.84
2022-07-29T07:26:07.534Z,101425.56
2022-07-29T07:28:36.813Z,101425.69
2022-07-29T07:31:05.132Z,101429.19
2022-07-29T07:33:33.324Z,101421.75
2022-07-29T07:36:01.504Z,101425.56
2022-07-29T07:38:29.703Z,101424.41
2022-07-29T07:40:57.931Z,101419.06
2022-07-29T07:43:26.293Z,101422.44
2022-07-29T07:45:54.478Z,101421.06
2022-07-29T07:48:22.705Z,101425.06
2022-07-29T07:50:51.657Z,101420.81
2022-07-29T07:53:20.129Z,101425.72
2022-07-29T07:56:17.920Z,101409.66
2022-07-29T07:58:36.655Z,101409.03
2022-07-29T08:01:04.836Z,101405.13
2022-07-29T08:03:34.432Z,101414.59
2022-07-29T08:06:04.851Z,101396.78
2022-07-29T08:08:33.430Z,101407.25
2022-07-29T08:11:06.952Z,101402.88
2022-07-29T08:13:39.140Z,101397.72
2022-07-29T08:16:16.421Z,101402.09
2022-07-29T08:18:46.771Z,101402.91
2022-07-29T08:21:16.494Z,101398.13
2022-07-29T08:23:58.984Z,101408.03
2022-07-29T08:26:29.206Z,101409.91
2022-07-29T08:28:57.464Z,101411.91
2022-07-29T08:31:25.783Z,101402.16
2022-07-29T08:33:54.219Z,101400.72
2022-07-29T08:36:22.430Z,101402.78
2022-07-29T08:38:50.726Z,101398.56
2022-07-29T08:41:22.919Z,101393.72
2022-07-29T08:43:52.922Z,101391.88
2022-07-29T08:46:22.732Z,101385.75
2022-07-29T08:48:51.368Z,101389.59
2022-07-29T08:51:22.264Z,101385.06
2022-07-29T08:53:51.691Z,101386.13
2022-07-29T08:56:21.834Z,101384.88
2022-07-29T08:58:52.169Z,101370.00
2022-07-29T09:01:35.155Z,101380.59
2022-07-29T09:04:10.979Z,101374.56
2022-07-29T09:06:47.096Z,101382.34
2022-07-29T09:09:16.135Z,101374.44
2022-07-29T09:11:45.249Z,101376.06
2022-07-29T09:14:15.110Z,101379.38
2022-07-29T09:16:56.528Z,101373.41
2022-07-29T09:19:38.036Z,101378.16
2022-07-29T09:22:08.315Z,101373.59
2022-07-29T09:24:45.049Z,101374.31
2022-07-29T09:27:27.029Z,101369.66
2022-07-29T09:30:01.964Z,101359.31
2022-07-29T09:32:30.646Z,101368.97
2022-07-29T09:35:22.878Z,101367.03
2022-07-29T09:37:51.604Z,101370.25
2022-07-29T09:40:27.753Z,101359.75
2022-07-29T09:42:58.268Z,101371.47
2022-07-29T09:45:33.638Z,101370.47
2022-07-29T09:48:20.928Z,101362.19
2022-07-29T09:50:50.829Z,101362.81
2022-07-29T09:53:40.884Z,101361.88
2022-07-29T09:56:11.653Z,101356.44
2022-07-29T09:58:40.059Z,101360.06
2022-07-29T10:01:08.398Z,101344.94
2022-07-29T10:03:55.219Z,101348.81
2022-07-29T10:06:23.513Z,101356.81
2022-07-29T10:08:53.373Z,101346.44
2022-07-29T10:11:21.804Z,101345.56
2022-07-29T10:13:50.434Z,101350.25
2022-07-29T10:16:19.040Z,101351.84
2022-07-29T10:18:47.925Z,101351.81
2022-07-29T10:21:34.860Z,101345.69
2022-07-29T10:24:06.167Z,101343.25
2022-07-29T10:26:35.273Z,101339.41
2022-07-29T10:29:03.616Z,101340.44
2022-07-29T10:31:50.690Z,101343.84
2022-07-29T10:34:53.343Z,101334.97
2022-07-29T10:37:55.071Z,101340.81
2022-07-29T10:41:26.475Z,101333.25
2022-07-29T10:44:17.423Z,101335.00
2022-07-29T10:46:48.520Z,101327.00
2022-07-29T10:49:30.833Z,101330.91
2022-07-29T10:52:06.106Z,101320.72
2022-07-29T10:54:34.881Z,101322.72
2022-07-29T10:57:17.323Z,101326.31
2022-07-29T11:00:14.156Z,101321.13
2022-07-29T11:02:50.235Z,101320.81
2022-07-29T11:05:20.569Z,101321.00
2022-07-29T11:08:19.958Z,101324.88
2022-07-29T11:10:52.157Z,101308.28
2022-07-29T11:13:42.894Z,101312.13
2022-07-29T11:16:11.416Z,101316.41
2022-07-29T11:19:13.230Z,101311.91
2022-07-29T11:22:00.332Z,101313.34
2022-07-29T11:24:34.809Z,101309.53
2022-07-29T11:27:19.452Z,101315.06
2022-07-29T11:29:53.454Z,101312.88
2022-07-29T11:32:25.645Z,101306.31
2022-07-29T11:35:17.816Z,101307.88
2022-07-29T11:37:52.625Z,101301.97
2022-07-29T11:40:26.144Z,101305.91
2022-07-29T11:42:55.054Z,101302.00
2022-07-29T11:45:41.557Z,101296.69
2022-07-29T11:48:28.384Z,101298.59
2022-07-29T11:50:58.912Z,101308.63
2022-07-29T11:53:28.906Z,101294.72
2022-07-29T11:56:02.440Z,101292.78
2022-07-29T11:58:32.252Z,101290.75
2022-07-29T12:04:06.855Z,101289.59
2022-07-29T12:06:36.006Z,101288.50
2022-07-29T12:07:03.328Z,101287.44
2022-07-29T12:09:14.555Z,101291.44
2022-07-29T12:11:47.360Z,101285.81
2022-07-29T12:14:32.643Z,101285.13
2022-07-29T12:17:02.692Z,101297.16
2022-07-29T12:19:44.745Z,101275.19
2022-07-29T12:22:12.959Z,101271.72
2022-07-29T12:24:47.256Z,101271.25
2022-07-29T12:27:19.221Z,101272.69
2022-07-29T12:30:08.734Z,101271.09
2022-07-29T12:32:49.723Z,101264.84
2022-07-29T12:35:22.310Z,101263.13
2022-07-29T12:37:52.633Z,101269.94
2022-07-29T12:40:22.274Z,101258.78
2022-07-29T12:43:10.433Z,101268.34
2022-07-29T12:45:51.692Z,101263.28
2022-07-29T12:48:41.891Z,101262.94
2022-07-29T12:51:12.870Z,101256.19
2022-07-29T12:53:41.275Z,101252.84
2022-07-29T12:56:40.497Z,101262.84
2022-07-29T12:59:18.746Z,101258.81
2022-07-29T13:01:50.846Z,101258.09
2022-07-29T13:04:34.275Z,101255.13
2022-07-29T13:07:12.820Z,101260.06
2022-07-29T13:09:46.785Z,101253.00
2022-07-29T13:12:15.872Z,101244.28
2022-07-29T13:14:49.760Z,101240.19
2022-07-29T13:17:32.765Z,101240.16
2022-07-29T13:20:13.461Z,101244.59
2022-07-29T13:22:43.486Z,101236.41
2022-07-29T13:25:11.737Z,101245.63
2022-07-29T13:27:45.537Z,101228.38
2022-07-29T13:30:14.010Z,101227.13
2022-07-29T13:32:42.504Z,101220.19
2022-07-29T13:35:10.991Z,101216.44
2022-07-29T13:37:39.383Z,101217.31
2022-07-29T13:40:10.211Z,101220.03
2022-07-29T13:42:38.908Z,101217.31
2022-07-29T13:45:08.981Z,101225.78
2022-07-29T13:47:37.888Z,101219.97
2022-07-29T13:50:10.910Z,101213.06
2022-07-29T13:52:39.339Z,101212.41
2022-07-29T13:55:09.188Z,101214.56
2022-07-29T13:57:37.430Z,101201.97
2022-07-29T14:00:06.391Z,101203.31
2022-07-29T14:02:36.734Z,101208.94
2022-07-29T14:05:08.688Z,101205.97
2022-07-29T14:07:39.737Z,101198.59
2022-07-29T14:10:09.214Z,101202.06
2022-07-29T14:12:37.461Z,101192.19
2022-07-29T14:15:06.467Z,101189.03
2022-07-29T14:17:34.856Z,101191.72
2022-07-29T14:20:03.180Z,101186.03
2022-07-29T14:22:31.403Z,101181.16
2022-07-29T14:25:02.312Z,101174.50
2022-07-29T14:27:44.801Z,101179.09
2022-07-29T14:30:13.839Z,101184.75
2022-07-29T14:32:42.703Z,101182.78
2022-07-29T14:35:11.091Z,101178.38
2022-07-29T14:37:40.866Z,101169.13
2022-07-29T14:40:10.827Z,101170.66
2022-07-29T14:42:40.395Z,101163.00
2022-07-29T14:45:10.668Z,101174.09
2022-07-29T14:47:40.541Z,101167.19
2022-07-29T14:50:10.114Z,101169.13
2022-07-29T14:52:39.048Z,101177.91
2022-07-29T14:55:19.615Z,101172.25
2022-07-29T14:57:49.502Z,101181.66
2022-07-29T15:00:18.556Z,101176.47
2022-07-29T15:03:01.317Z,101173.09
2022-07-29T15:05:31.336Z,101166.81
2022-07-29T15:08:01.001Z,101156.44
2022-07-29T15:10:29.754Z,101160.03
2022-07-29T15:12:58.296Z,101164.72
2022-07-29T15:15:27.058Z,101169.34
2022-07-29T15:17:55.562Z,101163.50
2022-07-29T15:20:26.335Z,101157.38
2022-07-29T15:22:56.557Z,101172.66
2022-07-29T15:25:26.476Z,101163.47
2022-07-29T15:28:01.310Z,101161.59
2022-07-29T15:30:33.928Z,101169.06
2022-07-29T15:33:04.230Z,101171.47
2022-07-29T15:35:32.974Z,101162.28
2022-07-29T15:38:01.297Z,101158.06
2022-07-29T15:40:29.834Z,101156.84
2022-07-29T15:43:01.686Z,101151.66
2022-07-29T15:45:32.430Z,101146.50
2022-07-29T15:48:01.367Z,101151.50
2022-07-29T15:50:29.542Z,101150.19
2022-07-29T15:52:57.765Z,101148.41
2022-07-29T15:55:26.294Z,101151.97
2022-07-29T15:57:59.961Z,101148.09
2022-07-29T16:00:28.771Z,101146.25
2022-07-29T16:02:57.570Z,101145.78
2022-07-29T16:05:26.313Z,101145.06
2022-07-29T16:07:54.568Z,101134.66
2022-07-29T16:10:22.765Z,101130.84
2022-07-29T16:12:53.608Z,101136.41
2022-07-29T16:15:21.919Z,101143.09
2022-07-29T16:17:50.527Z,101136.16
2022-07-29T16:20:18.743Z,101133.34
2022-07-29T16:22:47.063Z,101122.38
2022-07-29T16:25:15.330Z,101125.97
2022-07-29T16:27:43.554Z,101117.13
2022-07-29T16:30:12.102Z,101110.72
2022-07-29T16:32:40.397Z,101113.25
2022-07-29T16:35:09.987Z,101116.00
2022-07-29T16:37:39.215Z,101109.50
2022-07-29T16:40:11.401Z,101116.59
2022-07-29T16:42:48.034Z,101113.00
2022-07-29T16:45:17.470Z,101098.88
2022-07-29T16:47:49.863Z,101111.94
2022-07-29T16:50:18.214Z,101105.44
2022-07-29T16:52:46.441Z,101102.97
2022-07-29T16:55:14.714Z,101107.84
2022-07-29T16:57:43.889Z,101103.13
2022-07-29T17:00:14.024Z,101104.91
2022-07-29T17:02:42.726Z,101102.59
2022-07-29T17:05:12.582Z,101108.03
2022-07-29T17:07:41.085Z,101111.00
2022-07-29T17:10:10.986Z,101107.75
2022-07-29T17:12:41.401Z,101111.34
2022-07-29T17:15:12.466Z,101114.72
2022-07-29T17:17:55.369Z,101112.81
2022-07-29T17:20:26.857Z,101108.66
2022-07-29T17:22:55.466Z,101126.50
2022-07-29T17:25:24.730Z,101103.19
2022-07-29T17:27:57.541Z,101105.53
2022-07-29T17:30:29.865Z,101108.47
2022-07-29T17:32:58.087Z,101109.66
2022-07-29T17:35:44.848Z,101114.16
2022-07-29T17:38:17.906Z,101111.34
2022-07-29T17:40:46.099Z,101107.88
2022-07-29T17:43:17.115Z,101110.59
2022-07-29T17:45:50.068Z,101108.22
2022-07-29T17:48:21.363Z,101106.66
2022-07-29T17:50:52.523Z,101117.47
2022-07-29T17:53:20.716Z,101112.31
2022-07-29T17:55:49.729Z,101111.13
2022-07-29T17:58:17.929Z,101111.66
2022-07-29T18:00:46.205Z,101120.53
2022-07-29T18:03:15.252Z,101117.78
2022-07-29T18:05:44.124Z,101122.28
2022-07-29T18:08:12.870Z,101118.03
2022-07-29T18:10:41.489Z,101113.56
2022-07-29T18:13:12.717Z,101107.09
2022-07-29T18:15:41.568Z,101111.69
2022-07-29T18:18:09.803Z,101118.44
2022-07-29T18:20:38.328Z,101122.94
2022-07-29T18:23:06.902Z,101122.03
2022-07-29T18:25:35.379Z,101122.88
2022-07-29T18:28:04.657Z,101133.50
2022-07-29T18:30:39.817Z,101134.50
2022-07-29T18:33:21.869Z,101132.66
2022-07-29T18:36:07.651Z,101137.47
2022-07-29T18:38:41.213Z,101135.56
2022-07-29T18:41:09.761Z,101140.91
2022-07-29T18:43:38.101Z,101150.00
2022-07-29T18:46:06.830Z,101147.84
2022-07-29T18:48:35.399Z,101143.13
2022-07-29T18:51:09.480Z,101150.78
2022-07-29T18:53:38.069Z,101149.13
2022-07-29T18:56:06.424Z,101148.19
2022-07-29T18:58:35.764Z,101148.69
2022-07-29T19:01:03.975Z,101151.69
2022-07-29T19:03:32.234Z,101152.41
2022-07-29T19:06:00.429Z,101161.69
2022-07-29T19:08:29.577Z,101157.09
2022-07-29T19:10:58.094Z,101164.13
2022-07-29T19:13:26.333Z,101156.72
2022-07-29T19:15:54.564Z,101165.31
2022-07-29T19:18:22.842Z,101171.75
2022-07-29T19:20:51.087Z,101175.69
2022-07-29T19:23:19.750Z,101169.41
2022-07-29T19:25:53.217Z,101178.84
2022-07-29T19:28:22.674Z,101175.31
2022-07-29T19:30:51.195Z,101174.09
2022-07-29T19:33:20.447Z,101166.41
2022-07-29T19:35:54.319Z,101170.16
2022-07-29T19:38:23.556Z,101175.03
2022-07-29T19:40:52.318Z,101175.69
2022-07-29T19:43:50.586Z,101180.16
2022-07-29T19:46:09.180Z,101180.59
2022-07-29T19:48:38.058Z,101180.81
2022-07-29T19:51:06.515Z,101185.63
2022-07-29T19:53:35.050Z,101182.41
2022-07-29T19:56:03.507Z,101183.94
2022-07-29T19:58:32.089Z,101177.53
2022-07-29T20:01:00.843Z,101181.94
2022-07-29T20:03:29.558Z,101180.44
2022-07-29T20:05:58.349Z,101187.97
2022-07-29T20:08:26.544Z,101183.06
2022-07-29T20:10:56.190Z,101188.66
2022-07-29T20:13:24.683Z,101176.78
2022-07-29T20:15:53.008Z,101181.69
2022-07-29T20:18:21.483Z,101189.47
2022-07-29T20:20:50.113Z,101185.25
2022-07-29T20:23:19.404Z,101175.78
2022-07-29T20:25:48.396Z,101185.44
2022-07-29T20:28:16.677Z,101188.50
2022-07-29T20:30:44.947Z,101184.88
2022-07-29T20:33:15.974Z,101182.53
2022-07-29T20:35:44.215Z,101185.59
2022-07-29T20:38:17.809Z,101177.72
2022-07-29T20:40:46.597Z,101187.06
2022-07-29T20:43:14.844Z,101195.75
2022-07-29T20:45:43.136Z,101191.72
2022-07-29T20:48:11.625Z,101193.94
2022-07-29T20:50:39.825Z,101196.47
2022-07-29T20:53:08.128Z,101200.53
2022-07-29T20:55:36.448Z,101192.63
2022-07-29T20:58:05.081Z,101200.25
2022-07-29T21:00:33.270Z,101199.03
2022-07-29T21:03:01.645Z,101198.31
2022-07-29T21:05:30.018Z,101199.81
2022-07-29T21:07:58.395Z,101195.03
2022-07-29T21:10:26.667Z,101199.91
2022-07-29T21:12:55.172Z,101203.25
2022-07-29T21:15:23.918Z,101203.81
2022-07-29T21:17:59.856Z,101203.19
2022-07-29T21:20:29.166Z,101204.69
2022-07-29T21:22:58.027Z,101213.84
2022-07-29T21:25:26.354Z,101204.69
2022-07-29T21:28:12.982Z,101212.28
2022-07-29T21:30:41.177Z,101211.16
2022-07-29T21:33:09.507Z,101215.56
2022-07-29T21:36:07.406Z,101217.56
2022-07-29T21:38:26.214Z,101213.66
2022-07-29T21:40:55.114Z,101220.44
2022-07-29T21:43:24.130Z,101215.28
2022-07-29T21:45:53.171Z,101218.47
2022-07-29T21:48:22.948Z,101216.78
2022-07-29T21:50:52.145Z,101213.72
2022-07-29T21:53:22.089Z,101214.13
2022-07-29T21:55:55.482Z,101208.53
2022-07-29T21:58:24.836Z,101204.53
2022-07-29T22:00:53.993Z,101209.72
2022-07-29T22:03:22.313Z,101206.53
2022-07-29T22:05:50.523Z,101207.78
2022-07-29T22:08:21.481Z,101206.53
2022-07-29T22:10:49.673Z,101215.72
2022-07-29T22:13:17.864Z,101207.03
2022-07-29T22:15:47.233Z,101216.50
2022-07-29T22:18:20.685Z,101214.19
2022-07-29T22:20:50.784Z,101208.97
2022-07-29T22:23:19.017Z,101208.59
2022-07-29T22:25:47.286Z,101213.41
2022-07-29T22:28:15.551Z,101211.00
2022-07-29T22:30:43.780Z,101207.03
2022-07-29T22:33:17.486Z,101210.63
2022-07-29T22:35:48.510Z,101212.19
2022-07-29T22:38:18.191Z,101209.81
2022-07-29T22:40:48.657Z,101206.25
2022-07-29T22:43:19.017Z,101205.03
2022-07-29T22:45:47.317Z,101194.31
2022-07-29T22:48:15.595Z,101194.31
2022-07-29T22:50:43.876Z,101192.72
2022-07-29T22:53:12.119Z,101185.19
2022-07-29T22:55:40.298Z,101184.84
2022-07-29T22:58:08.543Z,101179.66
2022-07-29T23:00:36.824Z,101176.47
2022-07-29T23:03:05.035Z,101186.00
2022-07-29T23:05:33.552Z,101170.50
2022-07-29T23:08:01.779Z,101178.06
2022-07-29T23:10:29.977Z,101172.88
2022-07-29T23:12:58.250Z,101169.31
2022-07-29T23:15:26.523Z,101162.19
2022-07-29T23:17:54.748Z,101170.88
2022-07-29T23:20:23.085Z,101178.03
2022-07-29T23:22:51.391Z,101171.69
2022-07-29T23:25:19.712Z,101169.66
2022-07-29T23:27:47.928Z,101166.06
2022-07-29T23:30:16.165Z,101172.47
2022-07-29T23:32:44.364Z,101169.31
2022-07-29T23:35:12.646Z,101175.63
2022-07-29T23:37:40.855Z,101175.19
2022-07-29T23:40:14.157Z,101173.25
2022-07-29T23:42:43.729Z,101170.47
2022-07-29T23:45:14.015Z,101170.06
2022-07-29T23:47:43.091Z,101166.88
2022-07-29T23:50:13.009Z,101172.06
2022-07-29T23:52:41.586Z,101167.69
2022-07-29T23:55:37.463Z,101167.22
2022-07-29T23:58:00.512Z,101169.19
